createdAt,value
2019-03-24T00:03:02.965Z,101457.47
2019-03-24T00:06:07.081Z,101458.42
2019-03-24T00:09:11.216Z,101455.39
2019-03-24T00:12:15.309Z,101452.36
2019-03-24T00:15:26.101Z,101451.58
2019-03-24T00:18:26.406Z,101444.55
2019-03-24T00:21:30.374Z,101447.22
2019-03-24T00:24:34.381Z,101447.68
2019-03-24T00:27:38.552Z,101446.45
2019-03-24T00:30:42.610Z,101448.37
2019-03-24T00:33:46.579Z,101444.89
2019-03-24T00:36:50.715Z,101439.94
2019-03-24T00:39:55.879Z,101440.90
2019-03-24T00:42:59.923Z,101435.11
2019-03-24T00:46:03.942Z,101434.23
2019-03-24T00:49:08.191Z,101424.64
2019-03-24T00:52:12.304Z,101426.80
2019-03-24T00:55:19.435Z,101430.80
2019-03-24T00:58:23.444Z,101423.77
2019-03-24T01:01:27.438Z,101418.54
2019-03-24T01:04:31.640Z,101425.66
2019-03-24T01:07:35.671Z,101422.16
2019-03-24T01:10:39.695Z,101408.94
2019-03-24T01:13:44.714Z,101411.59
2019-03-24T01:16:48.921Z,101411.59
2019-03-24T01:19:52.940Z,101404.57
2019-03-24T01:22:56.904Z,101408.26
2019-03-24T01:26:00.891Z,101411.79
2019-03-24T01:29:04.903Z,101410.09
2019-03-24T01:32:09.069Z,101405.69
2019-03-24T01:35:13.167Z,101409.31
2019-03-24T01:38:17.326Z,101403.62
2019-03-24T01:41:21.462Z,101403.62
2019-03-24T01:44:25.524Z,101408.58
2019-03-24T01:47:29.449Z,101402.38
2019-03-24T01:50:33.514Z,101401.14
2019-03-24T01:53:37.669Z,101399.81
2019-03-24T01:56:41.741Z,101397.61
2019-03-24T01:59:45.911Z,101402.10
2019-03-24T02:02:49.869Z,101400.77
2019-03-24T02:05:53.837Z,101404.86
2019-03-24T02:08:57.967Z,101399.13
2019-03-24T02:12:02.106Z,101400.46
2019-03-24T02:15:06.523Z,101403.63
2019-03-24T02:18:10.593Z,101400.19
2019-03-24T02:21:14.662Z,101391.27
2019-03-24T02:24:18.828Z,101386.50
2019-03-24T02:27:22.898Z,101382.13
2019-03-24T02:30:26.927Z,101383.84
2019-03-24T02:33:30.967Z,101383.92
2019-03-24T02:36:36.124Z,101384.89
2019-03-24T02:39:41.238Z,101383.06
2019-03-24T02:42:45.290Z,101376.50
2019-03-24T02:45:49.265Z,101377.36
2019-03-24T02:48:53.310Z,101371.17
2019-03-24T02:51:58.540Z,101372.63
2019-03-24T02:55:02.864Z,101366.91
2019-03-24T02:58:06.912Z,101368.64
2019-03-24T03:01:11.005Z,101366.91
2019-03-24T03:04:15.127Z,101365.20
2019-03-24T03:07:19.343Z,101362.63
2019-03-24T03:10:23.454Z,101367.00
2019-03-24T03:13:28.494Z,101361.77
2019-03-24T03:16:38.492Z,101360.06
2019-03-24T03:19:39.589Z,101359.20
2019-03-24T03:22:43.802Z,101361.39
2019-03-24T03:25:47.842Z,101362.36
2019-03-24T03:28:51.813Z,101365.02
2019-03-24T03:31:55.866Z,101361.48
2019-03-24T03:35:00.442Z,101357.95
2019-03-24T03:38:05.191Z,101351.42
2019-03-24T03:41:09.298Z,101358.55
2019-03-24T03:44:13.416Z,101353.22
2019-03-24T03:47:17.467Z,101353.22
2019-03-24T03:50:21.568Z,101350.66
2019-03-24T03:53:25.776Z,101349.32
2019-03-24T03:56:29.891Z,101347.98
2019-03-24T03:59:34.044Z,101348.45
2019-03-24T04:02:38.105Z,101340.09
2019-03-24T04:05:43.259Z,101341.42
2019-03-24T04:08:47.284Z,101337.90
2019-03-24T04:11:51.471Z,101336.57
2019-03-24T04:14:56.791Z,101340.19
2019-03-24T04:18:01.894Z,101341.06
2019-03-24T04:21:06.091Z,101335.83
2019-03-24T04:24:10.129Z,101336.66
2019-03-24T04:27:14.281Z,101332.30
2019-03-24T04:30:18.340Z,101328.30
2019-03-24T04:33:22.353Z,101330.59
2019-03-24T04:36:28.421Z,101335.05
2019-03-24T04:39:32.438Z,101328.49
2019-03-24T04:42:36.448Z,101325.83
2019-03-24T04:45:40.621Z,101323.66
2019-03-24T04:48:45.777Z,101316.61
2019-03-24T04:51:49.903Z,101319.67
2019-03-24T04:54:53.996Z,101319.27
2019-03-24T04:57:58.043Z,101317.11
2019-03-24T05:01:02.171Z,101315.37
2019-03-24T05:04:06.129Z,101321.09
2019-03-24T05:07:10.628Z,101317.66
2019-03-24T05:10:26.485Z,101319.36
2019-03-24T05:13:30.524Z,101321.66
2019-03-24T05:16:34.531Z,101320.78
2019-03-24T05:19:38.609Z,101314.63
2019-03-24T05:22:46.006Z,101307.11
2019-03-24T05:25:51.113Z,101306.27
2019-03-24T05:28:55.238Z,101307.97
2019-03-24T05:31:59.295Z,101304.94
2019-03-24T05:35:03.303Z,101300.95
2019-03-24T05:38:07.343Z,101300.17
2019-03-24T05:41:12.036Z,101290.86
2019-03-24T05:44:16.172Z,101289.53
2019-03-24T05:47:20.179Z,101289.90
2019-03-24T05:50:24.240Z,101290.39
2019-03-24T05:53:28.377Z,101294.48
2019-03-24T05:56:33.524Z,101290.48
2019-03-24T05:59:37.571Z,101297.61
2019-03-24T06:02:41.582Z,101295.91
2019-03-24T06:05:47.642Z,101293.62
2019-03-24T06:08:51.626Z,101296.74
2019-03-24T06:11:55.725Z,101293.71
2019-03-24T06:14:59.842Z,101296.84
2019-03-24T06:18:03.821Z,101292.38
2019-03-24T06:21:07.863Z,101294.17
2019-03-24T06:24:11.825Z,101289.34
2019-03-24T06:27:15.829Z,101288.95
2019-03-24T06:30:19.929Z,101294.27
2019-03-24T06:33:24.123Z,101295.23
2019-03-24T06:36:28.241Z,101300.55
2019-03-24T06:39:32.372Z,101297.89
2019-03-24T06:42:38.519Z,101299.72
2019-03-24T06:45:42.627Z,101298.76
2019-03-24T06:48:46.768Z,101304.17
2019-03-24T06:51:50.805Z,101300.18
2019-03-24T06:54:54.988Z,101295.33
2019-03-24T06:57:59.214Z,101297.15
2019-03-24T07:01:03.176Z,101306.84
2019-03-24T07:04:07.132Z,101305.05
2019-03-24T07:07:11.243Z,101294.48
2019-03-24T07:10:15.329Z,101298.48
2019-03-24T07:13:19.467Z,101296.28
2019-03-24T07:16:23.582Z,101295.81
2019-03-24T07:19:27.636Z,101291.89
2019-03-24T07:22:31.753Z,101284.37
2019-03-24T07:25:35.738Z,101282.67
2019-03-24T07:28:39.783Z,101281.70
2019-03-24T07:31:43.870Z,101284.77
2019-03-24T07:34:47.987Z,101280.38
2019-03-24T07:37:52.013Z,101279.05
2019-03-24T07:40:55.994Z,101280.38
2019-03-24T07:44:00.150Z,101285.70
2019-03-24T07:47:11.896Z,101280.38
2019-03-24T07:50:16.043Z,101270.44
2019-03-24T07:53:20.101Z,101265.20
2019-03-24T07:56:24.057Z,101258.36
2019-03-24T07:59:30.186Z,101260.80
2019-03-24T08:02:34.329Z,101257.95
2019-03-24T08:05:38.297Z,101249.59
2019-03-24T08:08:44.443Z,101243.70
2019-03-24T08:11:48.008Z,101238.16
2019-03-24T08:14:52.003Z,101237.59
2019-03-24T08:17:57.096Z,101237.22
2019-03-24T08:21:01.112Z,101238.83
2019-03-24T08:24:05.113Z,101231.71
2019-03-24T08:27:09.294Z,101229.41
2019-03-24T08:30:13.425Z,101229.41
2019-03-24T08:33:18.514Z,101228.45
2019-03-24T08:36:22.607Z,101229.69
2019-03-24T08:39:26.601Z,101226.92
2019-03-24T08:42:30.563Z,101223.30
2019-03-24T08:45:34.745Z,101218.84
2019-03-24T08:48:41.135Z,101211.62
2019-03-24T08:51:45.082Z,101211.52
2019-03-24T08:54:49.127Z,101205.70
2019-03-24T08:57:53.199Z,101203.53
2019-03-24T09:00:57.176Z,101197.34
2019-03-24T09:04:01.283Z,101190.09
2019-03-24T09:07:05.383Z,101194.39
2019-03-24T09:10:09.425Z,101191.22
2019-03-24T09:13:13.415Z,101185.06
2019-03-24T09:16:17.416Z,101188.86
2019-03-24T09:19:21.512Z,101188.86
2019-03-24T09:22:25.558Z,101185.23
2019-03-24T09:25:29.601Z,101186.93
2019-03-24T09:28:33.601Z,101185.97
2019-03-24T09:31:37.570Z,101179.31
2019-03-24T09:34:41.670Z,101179.70
2019-03-24T09:37:45.708Z,101185.41
2019-03-24T09:40:49.706Z,101185.30
2019-03-24T09:43:53.744Z,101180.44
2019-03-24T09:46:57.867Z,101174.55
2019-03-24T09:50:02.067Z,101167.89
2019-03-24T09:53:06.106Z,101163.42
2019-03-24T09:56:10.327Z,101161.59
2019-03-24T09:59:14.322Z,101160.87
2019-03-24T10:02:18.506Z,101162.56
2019-03-24T10:05:22.558Z,101150.11
2019-03-24T10:08:26.569Z,101152.55
2019-03-24T10:11:30.583Z,101141.78
2019-03-24T10:14:34.651Z,101141.69
2019-03-24T10:17:38.700Z,101135.02
2019-03-24T10:20:42.728Z,101133.23
2019-03-24T10:23:47.855Z,101128.27
2019-03-24T10:26:51.882Z,101119.30
2019-03-24T10:29:56.873Z,101118.37
2019-03-24T10:33:01.067Z,101116.44
2019-03-24T10:36:05.029Z,101112.08
2019-03-24T10:39:09.042Z,101112.45
2019-03-24T10:42:13.023Z,101105.78
2019-03-24T10:45:17.090Z,101105.58
2019-03-24T10:48:21.282Z,101104.25
2019-03-24T10:51:26.426Z,101098.92
2019-03-24T10:54:30.437Z,101095.36
2019-03-24T10:57:34.401Z,101091.72
2019-03-24T11:00:43.258Z,101089.06
2019-03-24T11:03:47.312Z,101083.12
2019-03-24T11:06:51.403Z,101079.62
2019-03-24T11:09:55.541Z,101072.47
2019-03-24T11:12:59.505Z,101067.14
2019-03-24T11:16:03.483Z,101063.91
2019-03-24T11:19:07.605Z,101057.25
2019-03-24T11:22:11.584Z,101057.61
2019-03-24T11:25:16.537Z,101055.34
2019-03-24T11:28:20.538Z,101050.02
2019-03-24T11:31:24.528Z,101047.81
2019-03-24T11:34:28.527Z,101040.55
2019-03-24T11:37:32.607Z,101035.72
2019-03-24T11:40:36.878Z,101032.30
2019-03-24T11:43:42.022Z,101026.03
2019-03-24T11:46:46.043Z,101020.09
2019-03-24T11:49:52.165Z,101017.80
2019-03-24T11:52:56.227Z,101009.08
2019-03-24T11:56:00.351Z,101005.80
2019-03-24T11:59:04.384Z,101003.90
2019-03-24T12:02:08.463Z,100998.57
2019-03-24T12:05:12.489Z,100990.94
2019-03-24T12:08:16.468Z,100986.94
2019-03-24T12:11:20.438Z,100980.67
2019-03-24T12:14:24.423Z,100974.02
2019-03-24T12:17:28.399Z,100967.72
2019-03-24T12:20:32.543Z,100969.41
2019-03-24T12:23:36.549Z,100964.08
2019-03-24T12:26:40.571Z,100963.57
2019-03-24T12:29:44.617Z,100958.60
2019-03-24T12:32:48.658Z,100951.94
2019-03-24T12:35:52.815Z,100950.25
2019-03-24T12:38:56.832Z,100948.91
2019-03-24T12:42:01.030Z,100951.19
2019-03-24T12:45:05.436Z,100945.02
2019-03-24T12:48:09.713Z,100939.70
2019-03-24T12:51:13.801Z,100937.50
2019-03-24T12:54:17.886Z,100933.50
2019-03-24T12:57:21.920Z,100927.81
2019-03-24T13:00:34.248Z,100923.31
2019-03-24T13:03:38.244Z,100916.30
2019-03-24T13:06:42.217Z,100913.16
2019-03-24T13:09:46.376Z,100909.73
2019-03-24T13:12:50.445Z,100909.73
2019-03-24T13:15:54.618Z,100907.69
2019-03-24T13:18:59.722Z,100902.36
2019-03-24T13:22:03.763Z,100911.47
2019-03-24T13:25:07.850Z,100909.63
2019-03-24T13:28:13.025Z,100906.86
2019-03-24T13:31:17.160Z,100908.66
2019-03-24T13:34:21.259Z,100897.17
2019-03-24T13:37:25.383Z,100912.19
2019-03-24T13:40:29.477Z,100899.84
2019-03-24T13:43:33.789Z,100895.34
2019-03-24T13:46:38.524Z,100892.67
2019-03-24T13:49:42.545Z,100886.52
2019-03-24T13:52:46.549Z,100887.34
2019-03-24T13:55:50.522Z,100884.68
2019-03-24T13:58:54.577Z,100878.52
2019-03-24T14:01:58.793Z,100874.63
2019-03-24T14:05:02.894Z,100867.11
2019-03-24T14:08:06.924Z,100874.16
2019-03-24T14:11:10.937Z,100868.84
2019-03-24T14:14:14.959Z,100868.84
2019-03-24T14:17:18.927Z,100861.42
2019-03-24T14:20:22.993Z,100866.17
2019-03-24T14:23:27.594Z,100863.01
2019-03-24T14:26:31.705Z,100860.84
2019-03-24T14:29:35.692Z,100860.84
2019-03-24T14:32:39.698Z,100860.84
2019-03-24T14:35:43.755Z,100855.62
2019-03-24T14:38:47.962Z,100845.80
2019-03-24T14:41:52.006Z,100847.13
2019-03-24T14:44:55.996Z,100848.46
2019-03-24T14:48:00.007Z,100851.13
2019-03-24T14:51:04.002Z,100839.64
2019-03-24T14:54:09.130Z,100836.11
2019-03-24T14:57:13.259Z,100829.67
2019-03-24T15:00:22.230Z,100827.62
2019-03-24T15:03:26.318Z,100833.85
2019-03-24T15:06:30.501Z,100827.62
2019-03-24T15:09:34.577Z,100833.85
2019-03-24T15:12:38.777Z,100828.52
2019-03-24T15:15:42.790Z,100832.80
2019-03-24T15:18:46.810Z,100832.70
2019-03-24T15:21:50.910Z,100831.36
2019-03-24T15:24:54.944Z,100824.70
2019-03-24T15:27:58.934Z,100824.70
2019-03-24T15:31:02.984Z,100823.87
2019-03-24T15:34:06.980Z,100825.67
2019-03-24T15:37:11.054Z,100824.70
2019-03-24T15:40:15.080Z,100819.02
2019-03-24T15:43:19.102Z,100833.66
2019-03-24T15:46:23.064Z,100823.48
2019-03-24T15:49:27.231Z,100829.20
2019-03-24T15:52:31.262Z,100819.38
2019-03-24T15:55:35.369Z,100818.66
2019-03-24T15:58:39.350Z,100805.33
2019-03-24T16:01:43.757Z,100804.47
2019-03-24T16:04:47.826Z,100800.36
2019-03-24T16:07:51.836Z,100791.16
2019-03-24T16:10:55.799Z,100784.38
2019-03-24T16:14:01.598Z,100775.06
2019-03-24T16:17:05.582Z,100768.03
2019-03-24T16:20:09.693Z,100782.69
2019-03-24T16:23:14.749Z,100770.70
2019-03-24T16:26:18.746Z,100773.84
2019-03-24T16:29:22.800Z,100767.17
2019-03-24T16:32:26.961Z,100767.17
2019-03-24T16:35:31.014Z,100771.06
2019-03-24T16:38:35.131Z,100765.38
2019-03-24T16:41:40.162Z,100760.05
2019-03-24T16:44:44.180Z,100756.59
2019-03-24T16:47:48.203Z,100747.89
2019-03-24T16:50:52.207Z,100755.02
2019-03-24T16:53:56.344Z,100754.27
2019-03-24T16:57:00.330Z,100749.44
2019-03-24T17:00:04.978Z,100745.34
2019-03-24T17:03:08.983Z,100753.58
2019-03-24T17:06:13.074Z,100752.24
2019-03-24T17:09:17.106Z,100752.24
2019-03-24T17:12:21.219Z,100756.23
2019-03-24T17:15:25.248Z,100750.55
2019-03-24T17:18:29.331Z,100750.80
2019-03-24T17:21:33.390Z,100746.05
2019-03-24T17:24:37.558Z,100755.27
2019-03-24T17:27:42.614Z,100745.39
2019-03-24T17:30:46.641Z,100755.69
2019-03-24T17:33:50.667Z,100754.80
2019-03-24T17:36:55.783Z,100755.55
2019-03-24T17:39:59.998Z,100752.60
2019-03-24T17:43:05.323Z,100757.85
2019-03-24T17:46:09.394Z,100762.71
2019-03-24T17:49:13.408Z,100756.88
2019-03-24T17:52:17.396Z,100766.34
2019-03-24T17:55:27.699Z,100768.76
2019-03-24T17:58:27.160Z,100769.09
2019-03-24T18:01:32.096Z,100756.23
2019-03-24T18:04:36.111Z,100754.55
2019-03-24T18:07:40.183Z,100746.16
2019-03-24T18:10:44.216Z,100743.50
2019-03-24T18:13:49.269Z,100745.03
2019-03-24T18:16:53.226Z,100738.92
2019-03-24T18:19:58.322Z,100737.41
2019-03-24T18:23:02.290Z,100745.28
2019-03-24T18:26:07.458Z,100738.87
2019-03-24T18:29:11.517Z,100739.95
2019-03-24T18:32:15.536Z,100737.65
2019-03-24T18:35:19.611Z,100738.52
2019-03-24T18:38:23.696Z,100734.12
2019-03-24T18:41:27.737Z,100729.55
2019-03-24T18:44:31.755Z,100722.89
2019-03-24T18:47:39.267Z,100725.91
2019-03-24T18:50:42.599Z,100732.21
2019-03-24T18:53:46.740Z,100728.57
2019-03-24T18:56:50.705Z,100730.77
2019-03-24T18:59:55.794Z,100724.58
2019-03-24T19:03:00.859Z,100728.57
2019-03-24T19:06:04.998Z,100727.63
2019-03-24T19:09:09.583Z,100713.34
2019-03-24T19:12:14.715Z,100721.33
2019-03-24T19:15:18.762Z,100723.02
2019-03-24T19:18:22.766Z,100718.66
2019-03-24T19:21:26.776Z,100713.70
2019-03-24T19:24:31.907Z,100704.84
2019-03-24T19:27:35.892Z,100704.02
2019-03-24T19:30:40.592Z,100706.06
2019-03-24T19:33:45.699Z,100702.17
2019-03-24T19:36:49.706Z,100703.39
2019-03-24T19:39:54.771Z,100708.72
2019-03-24T19:42:58.805Z,100704.84
2019-03-24T19:46:03.783Z,100701.34
2019-03-24T19:49:08.575Z,100701.23
2019-03-24T19:52:12.846Z,100703.78
2019-03-24T19:55:16.864Z,100698.06
2019-03-24T19:58:20.836Z,100691.80
2019-03-24T20:01:24.889Z,100694.82
2019-03-24T20:04:28.927Z,100696.38
2019-03-24T20:07:33.070Z,100681.37
2019-03-24T20:10:37.033Z,100691.05
2019-03-24T20:13:42.047Z,100691.16
2019-03-24T20:16:46.139Z,100689.00
2019-03-24T20:19:50.119Z,100683.17
2019-03-24T20:22:56.820Z,100666.36
2019-03-24T20:25:59.999Z,100672.16
2019-03-24T20:29:04.535Z,100666.94
2019-03-24T20:32:08.576Z,100663.69
2019-03-24T20:35:12.592Z,100660.41
2019-03-24T20:38:16.574Z,100659.08
2019-03-24T20:41:20.562Z,100664.41
2019-03-24T20:44:24.547Z,100657.39
2019-03-24T20:47:28.627Z,100651.95
2019-03-24T20:50:32.678Z,100655.08
2019-03-24T20:53:36.685Z,100650.73
2019-03-24T20:56:40.699Z,100651.44
2019-03-24T20:59:44.905Z,100651.09
2019-03-24T21:02:48.993Z,100646.83
2019-03-24T21:05:53.306Z,100643.39
2019-03-24T21:08:57.435Z,100636.84
2019-03-24T21:12:01.483Z,100648.94
2019-03-24T21:15:07.251Z,100645.56
2019-03-24T21:18:11.255Z,100638.91
2019-03-24T21:21:15.420Z,100630.16
2019-03-24T21:24:19.376Z,100624.84
2019-03-24T21:27:23.567Z,100618.41
2019-03-24T21:30:35.200Z,100622.79
2019-03-24T21:33:39.341Z,100613.30
2019-03-24T21:36:43.488Z,100611.26
2019-03-24T21:39:47.639Z,100617.56
2019-03-24T21:42:51.663Z,100624.22
2019-03-24T21:45:55.659Z,100615.12
2019-03-24T21:48:59.708Z,100616.06
2019-03-24T21:52:03.858Z,100608.08
2019-03-24T21:55:07.941Z,100606.38
2019-03-24T21:58:12.103Z,100603.36
2019-03-24T22:01:16.162Z,100600.45
2019-03-24T22:04:20.311Z,100599.59
2019-03-24T22:07:24.451Z,100592.58
2019-03-24T22:10:28.629Z,100598.84
2019-03-24T22:13:32.873Z,100597.16
2019-03-24T22:16:36.922Z,100595.47
2019-03-24T22:19:40.907Z,100595.11
2019-03-24T22:22:44.936Z,100593.39
2019-03-24T22:25:49.143Z,100590.38
2019-03-24T22:28:53.241Z,100593.62
2019-03-24T22:31:57.358Z,100590.59
2019-03-24T22:35:01.414Z,100586.25
2019-03-24T22:38:05.547Z,100577.40
2019-03-24T22:41:09.726Z,100570.39
2019-03-24T22:44:13.729Z,100573.16
2019-03-24T22:47:17.871Z,100575.83
2019-03-24T22:50:21.882Z,100569.28
2019-03-24T22:53:26.973Z,100570.72
2019-03-24T22:56:31.114Z,100569.86
2019-03-24T22:59:35.223Z,100556.20
2019-03-24T23:02:39.343Z,100560.66
2019-03-24T23:05:43.382Z,100552.31
2019-03-24T23:08:47.356Z,100547.22
2019-03-24T23:11:52.507Z,100542.28
2019-03-24T23:14:56.635Z,100536.58
2019-03-24T23:18:00.605Z,100535.74
2019-03-24T23:21:06.072Z,100522.55
2019-03-24T23:24:15.260Z,100527.98
2019-03-24T23:27:15.792Z,100525.44
2019-03-24T23:30:19.804Z,100519.25
2019-03-24T23:33:23.955Z,100511.38
2019-03-24T23:36:28.076Z,100504.27
2019-03-24T23:39:32.129Z,100505.23
2019-03-24T23:42:36.302Z,100498.30
2019-03-24T23:45:40.428Z,100497.36
2019-03-24T23:48:45.497Z,100490.32
2019-03-24T23:51:49.684Z,100497.95
2019-03-24T23:54:53.758Z,100497.59
2019-03-24T23:57:58.958Z,100498.53
